Stewartsville, Indiana
Current Conditions -  °F | °C
As of 6:35 AM on Thursday 23 Oct 2014 (Local Time) from KCUL Reporting Station
Moderate Fog Moderate Fog  
Wind Chill: 35°   Ceiling: Unl
Heat Index: 35°   Visibility: 0mi
Dew Point: 35°   Wind: 0mph
Humidity: 100%   Direction: NA
Pressure: 30.23"   Gusts: NA
Location:  38.1775°N, 87.8268°W
Report Text: KCUL 231135Z AUTO 00000KT M1/4SM FG VV000 01/01 A3023 RMK AO2 T00140014
Loading
Personal Weather Stations






























Interactive Weather Map
Tropical Storm Tracking
New forecast layout! Learn more

10-Day Weather Forecast

Advertisements
Track Severe Weather on mobile